Time;durP1;ratioP1;P1;durP2;ratioP2;P2;SDS_P1;SDS_P2;PMS_P1;PMS_P2;Temp;Humidity;BMP_temperature;BMP_pressure;BME280_temperature;BME280_humidity;BME280_pressure;Samples;Min_cycle;Max_cycle;Signal;HPM_P1;HPM_P2
2023/04/20 00:01:52;;;;;;;5.05;3.75;;;;;;;6.13;43.33;102060.19;4927328;28;20777;-90
2023/04/20 00:04:18;;;;;;;4.53;4.13;;;;;;;6.08;43.17;102057.59;4950558;28;20074;-90
2023/04/20 00:06:44;;;;;;;5.57;3.60;;;;;;;6.08;42.98;102057.59;4884528;28;20416;-91
2023/04/20 00:09:11;;;;;;;6.70;4.28;;;;;;;5.99;43.42;102048.03;4881550;28;20173;-90
2023/04/20 00:11:36;;;;;;;5.25;3.90;;;;;;;5.95;43.46;102053.38;4887906;28;20032;-92
2023/04/20 00:14:01;;;;;;;4.97;3.90;;;;;;;5.96;43.62;102053.34;4926143;28;20184;-90
2023/04/20 00:16:27;;;;;;;4.65;4.00;;;;;;;5.93;43.81;102047.22;4913816;28;20056;-89
2023/04/20 00:18:52;;;;;;;5.47;4.00;;;;;;;5.89;44.03;102045.47;4968334;28;20027;-92
2023/04/20 00:21:22;;;;;;;4.63;3.80;;;;;;;5.86;43.75;102037.59;4881809;28;20037;-91
2023/04/20 00:23:48;;;;;;;6.40;4.22;;;;;;;5.83;43.82;102041.13;4884477;28;20115;-90
2023/04/20 00:26:13;;;;;;;6.22;4.15;;;;;;;5.79;44.02;102031.50;4877976;28;20033;-88
2023/04/20 00:28:39;;;;;;;5.85;3.92;;;;;;;5.76;44.35;102028.88;4964140;28;20030;-88
2023/04/20 00:31:05;;;;;;;6.15;4.28;;;;;;;5.72;43.93;102024.53;4881348;28;20049;-89
2023/04/20 00:33:34;;;;;;;5.80;3.55;;;;;;;5.70;44.54;102023.69;4889014;29;20029;-90
2023/04/20 00:35:59;;;;;;;4.55;4.10;;;;;;;5.62;44.48;102015.84;4873920;29;20092;-90
2023/04/20 00:38:24;;;;;;;4.55;3.58;;;;;;;5.58;43.58;102008.00;4978558;28;20073;-90
2023/04/20 00:40:52;;;;;;;4.75;3.80;;;;;;;5.62;44.31;102009.69;4969060;28;20035;-90
2023/04/20 00:43:19;;;;;;;5.80;4.03;;;;;;;5.58;44.45;102008.00;4903844;28;21940;-91
2023/04/20 00:45:45;;;;;;;4.65;4.10;;;;;;;5.60;44.28;102004.44;4888130;29;20036;-90
2023/04/20 00:48:11;;;;;;;6.43;3.88;;;;;;;5.56;44.28;101999.19;4875374;28;20032;-90
2023/04/20 00:50:38;;;;;;;5.68;4.05;;;;;;;5.53;44.36;101997.47;4956598;28;20030;-90
2023/04/20 00:53:05;;;;;;;6.50;4.10;;;;;;;5.48;44.60;101994.91;4894153;28;20334;-89
2023/04/20 00:55:31;;;;;;;5.05;3.88;;;;;;;5.45;44.51;101981.72;4903330;28;20025;-89
2023/04/20 00:57:57;;;;;;;6.30;4.07;;;;;;;5.39;44.73;101975.63;4873818;28;20039;-90
2023/04/20 01:00:22;;;;;;;4.65;3.60;;;;;;;5.36;44.38;101968.63;4890140;28;20029;-90
2023/04/20 01:02:48;;;;;;;4.90;3.88;;;;;;;5.35;44.95;101969.53;4882010;28;20606;-89
2023/04/20 01:05:13;;;;;;;6.00;4.00;;;;;;;5.34;44.59;101973.03;4881261;29;20029;-90
2023/04/20 01:07:38;;;;;;;4.95;4.22;;;;;;;5.30;45.34;101960.75;4875174;28;20069;-90
2023/04/20 01:10:06;;;;;;;4.95;3.85;;;;;;;5.24;45.13;101956.44;4886376;28;20053;-90
2023/04/20 01:12:32;;;;;;;6.10;3.80;;;;;;;5.20;45.28;101960.00;4891335;29;20040;-89
2023/04/20 01:14:57;;;;;;;6.43;4.20;;;;;;;5.19;45.70;101955.63;4975404;28;20033;-90
2023/04/20 01:17:23;;;;;;;6.00;3.90;;;;;;;5.19;45.88;101949.47;4873748;29;20526;-90
2023/04/20 01:19:49;;;;;;;6.03;3.95;;;;;;;5.11;45.65;101949.53;4879852;28;20029;-91
2023/04/20 01:22:19;;;;;;;5.32;4.50;;;;;;;5.08;46.45;101946.94;4975281;28;20051;-90
2023/04/20 01:24:44;;;;;;;6.38;3.70;;;;;;;5.02;46.05;101933.81;4951400;28;20037;-89
2023/04/20 01:27:11;;;;;;;7.13;4.03;;;;;;;5.04;46.54;101946.97;4890885;28;20037;-90
2023/04/20 01:29:36;;;;;;;5.57;4.22;;;;;;;5.02;46.52;101933.81;4879487;28;20052;-90
2023/04/20 01:32:02;;;;;;;4.90;4.03;;;;;;;4.99;46.48;101926.78;4882072;28;20060;-90
2023/04/20 01:34:28;;;;;;;5.93;3.67;;;;;;;5.02;46.69;101927.63;4908044;28;20033;-90
2023/04/20 01:36:53;;;;;;;6.57;3.30;;;;;;;4.99;47.02;101918.00;4904556;28;20479;-89
2023/04/20 01:39:19;;;;;;;5.82;4.03;;;;;;;5.02;47.12;101927.63;4960549;28;20152;-89
2023/04/20 01:41:44;;;;;;;6.85;3.70;;;;;;;4.92;46.96;101911.91;4942424;28;20033;-89
2023/04/20 01:44:10;;;;;;;6.15;3.80;;;;;;;4.92;47.31;101911.91;4880440;28;20028;-91
2023/04/20 01:46:37;;;;;;;6.22;3.58;;;;;;;4.95;47.69;101911.00;4896376;28;20101;-89
2023/04/20 01:49:03;;;;;;;6.38;4.00;;;;;;;4.93;47.52;101904.88;4911177;28;20029;-89
2023/04/20 01:51:28;;;;;;;5.63;3.47;;;;;;;4.92;48.05;101909.28;4885993;28;20061;-90
2023/04/20 01:53:54;;;;;;;5.57;3.88;;;;;;;4.92;48.00;101901.34;4874258;28;20102;-90
2023/04/20 01:56:19;;;;;;;4.70;3.95;;;;;;;4.90;48.28;101897.88;4966523;28;20032;-89
2023/04/20 01:58:44;;;;;;;4.88;3.75;;;;;;;4.91;48.50;101896.97;4878236;28;20033;-89
2023/04/20 02:01:10;;;;;;;4.13;3.60;;;;;;;4.95;48.55;101889.91;4869625;28;20079;-90
2023/04/20 02:03:35;;;;;;;7.30;3.97;;;;;;;4.85;48.54;101881.22;4870334;29;20273;-89
2023/04/20 02:06:00;;;;;;;6.13;4.05;;;;;;;4.91;48.87;101888.19;4887178;28;20400;-89
2023/04/20 02:08:26;;;;;;;4.70;4.00;;;;;;;4.89;48.44;101885.59;4859781;28;20064;-91
2023/04/20 02:10:51;;;;;;;4.32;3.92;;;;;;;4.83;48.31;101880.34;4872627;28;20047;-89
2023/04/20 02:13:16;;;;;;;6.78;3.60;;;;;;;4.83;48.60;101871.56;4952977;28;20084;-91
2023/04/20 02:15:42;;;;;;;6.47;3.90;;;;;;;4.82;48.34;101873.34;4869612;28;20149;-90
2023/04/20 02:18:07;;;;;;;4.97;3.42;;;;;;;4.76;48.74;101868.09;4868812;28;20413;-90
2023/04/20 02:20:34;;;;;;;4.95;3.88;;;;;;;4.71;48.76;101862.00;4914180;28;20124;-90
2023/04/20 02:22:59;;;;;;;6.18;4.07;;;;;;;4.72;49.27;101858.47;4867072;28;20037;-91
2023/04/20 02:25:25;;;;;;;5.63;3.92;;;;;;;4.67;49.41;101850.63;4862696;28;20033;-90
2023/04/20 02:27:50;;;;;;;4.32;3.65;;;;;;;4.65;49.65;101856.81;4904263;28;20025;-90
2023/04/20 02:30:15;;;;;;;4.85;3.83;;;;;;;4.60;49.84;101863.88;4867872;28;20029;-89
2023/04/20 02:32:41;;;;;;;6.25;4.28;;;;;;;4.59;49.91;101856.88;4887923;29;20049;-89
2023/04/20 02:35:07;;;;;;;4.45;3.97;;;;;;;4.51;50.27;101856.94;4887340;28;20105;-91
2023/04/20 02:37:33;;;;;;;5.35;3.55;;;;;;;4.45;50.70;101846.47;4909431;28;20073;-88
2023/04/20 02:39:58;;;;;;;4.38;3.83;;;;;;;4.47;50.67;101853.47;4908190;28;20029;-89
2023/04/20 02:42:23;;;;;;;5.13;3.50;;;;;;;4.49;50.86;101858.72;4879078;29;20025;-90
2023/04/20 02:44:49;;;;;;;5.43;3.72;;;;;;;4.47;51.64;101857.84;4910827;28;20469;-89
2023/04/20 02:47:14;;;;;;;6.28;3.55;;;;;;;4.44;51.04;101835.03;4932907;28;20037;-90
2023/04/20 02:49:40;;;;;;;5.25;3.75;;;;;;;4.38;51.39;101829.81;4872816;28;20037;-89
2023/04/20 02:52:05;;;;;;;5.72;4.22;;;;;;;4.37;51.77;101832.47;4944518;28;20088;-88
2023/04/20 02:54:31;;;;;;;4.20;3.80;;;;;;;4.33;52.04;101829.00;4876769;28;20057;-89
2023/04/20 02:56:57;;;;;;;8.25;4.03;;;;;;;4.35;52.28;101832.50;4871478;28;20386;-90
2023/04/20 02:59:23;;;;;;;4.10;3.70;;;;;;;4.28;52.71;101828.16;4864908;29;20036;-90
2023/04/20 03:01:51;;;;;;;5.55;3.88;;;;;;;4.30;53.34;101836.06;4870149;28;20512;-89
2023/04/20 03:04:18;;;;;;;6.65;4.03;;;;;;;4.29;53.28;101826.41;4950626;28;20040;-90
2023/04/20 03:06:43;;;;;;;6.70;4.10;;;;;;;4.25;53.60;101818.53;4879468;29;20049;-90
2023/04/20 03:09:09;;;;;;;8.68;4.60;;;;;;;4.34;54.19;101817.56;4881771;29;20108;-89
2023/04/20 03:11:34;;;;;;;5.72;4.45;;;;;;;4.36;53.61;101804.38;4970497;28;20021;-89
2023/04/20 03:14:00;;;;;;;6.93;4.20;;;;;;;4.42;54.13;101804.31;4882640;28;20032;-91
2023/04/20 03:16:25;;;;;;;5.20;3.90;;;;;;;4.41;54.37;101806.06;4892753;28;20109;-90
2023/04/20 03:18:51;;;;;;;5.97;4.20;;;;;;;4.40;54.77;101801.69;4953377;28;20422;-89
2023/04/20 03:21:16;;;;;;;7.07;4.18;;;;;;;4.40;55.20;101803.47;4878739;29;20037;-88
2023/04/20 03:23:41;;;;;;;5.43;4.28;;;;;;;4.44;55.11;101800.78;4880487;28;20033;-89
2023/04/20 03:26:07;;;;;;;6.38;4.38;;;;;;;4.45;56.18;101799.88;4900765;28;20031;-90
2023/04/20 03:28:32;;;;;;;4.40;4.00;;;;;;;4.45;56.07;101801.66;4873988;28;20044;-90
2023/04/20 03:30:58;;;;;;;7.22;4.13;;;;;;;4.38;56.44;101795.56;4890540;28;20055;-89
2023/04/20 03:33:23;;;;;;;6.43;4.53;;;;;;;4.44;57.00;101799.91;4884852;28;20036;-89
2023/04/20 03:35:49;;;;;;;6.35;4.32;;;;;;;4.48;57.97;101799.00;4917302;28;20054;-89
2023/04/20 03:38:14;;;;;;;6.45;4.00;;;;;;;4.56;57.90;101798.91;4949622;28;20042;-90
2023/04/20 03:40:40;;;;;;;7.20;4.13;;;;;;;4.64;57.48;101791.75;4864278;28;20104;-89
2023/04/20 03:43:05;;;;;;;5.15;4.63;;;;;;;4.67;57.90;101792.59;4877863;28;20265;-90
2023/04/20 03:45:30;;;;;;;5.20;4.50;;;;;;;4.72;57.68;101780.25;4869563;28;20029;-90
2023/04/20 03:47:56;;;;;;;5.00;4.10;;;;;;;4.70;58.94;101766.22;4875099;28;20040;-91
2023/04/20 03:50:21;;;;;;;5.15;4.38;;;;;;;4.81;59.05;101779.28;4859639;28;20029;-90
2023/04/20 03:52:46;;;;;;;6.63;4.45;;;;;;;4.89;58.61;101784.44;4873575;28;20033;-89
2023/04/20 03:55:12;;;;;;;5.10;4.60;;;;;;;4.92;58.87;101774.72;4871819;28;20323;-89
2023/04/20 03:57:37;;;;;;;6.60;4.53;;;;;;;4.96;59.23;101772.91;4870204;28;20306;-90
2023/04/20 04:00:03;;;;;;;5.95;4.50;;;;;;;4.95;59.42;101772.06;4875038;28;20084;-90
2023/04/20 04:02:30;;;;;;;5.78;4.80;;;;;;;5.00;59.79;101780.78;4868969;28;20037;-90
2023/04/20 04:04:55;;;;;;;5.95;4.70;;;;;;;5.03;59.92;101773.72;4861751;28;20029;-90
2023/04/20 04:07:21;;;;;;;4.85;4.25;;;;;;;5.05;60.00;101769.28;4868182;28;20445;-89
2023/04/20 04:09:47;;;;;;;4.78;4.30;;;;;;;5.12;60.18;101771.84;4919655;28;20041;-88
2023/04/20 04:12:12;;;;;;;6.18;4.88;;;;;;;5.16;60.02;101756.84;4930908;28;20105;-88
2023/04/20 04:14:38;;;;;;;8.23;5.00;;;;;;;5.19;60.63;101748.88;4863046;28;20546;-89
2023/04/20 04:17:03;;;;;;;6.57;4.60;;;;;;;5.25;60.81;101751.41;4900432;28;20550;-89
2023/04/20 04:19:29;;;;;;;5.93;4.80;;;;;;;5.29;60.50;101749.63;4864138;28;20605;-88
2023/04/20 04:21:54;;;;;;;5.85;4.68;;;;;;;5.26;60.85;101737.31;4862949;28;20029;-88
2023/04/20 04:24:20;;;;;;;5.45;4.95;;;;;;;5.35;60.95;101739.84;4869718;28;20056;-90
2023/04/20 04:26:46;;;;;;;6.75;4.75;;;;;;;5.38;60.89;101731.84;4873081;28;20024;-89
2023/04/20 04:29:11;;;;;;;6.10;4.70;;;;;;;5.44;61.00;101723.84;4865104;28;20451;-89
2023/04/20 04:31:36;;;;;;;7.53;5.05;;;;;;;5.43;61.39;101722.13;4859154;28;20060;-88
2023/04/20 04:34:02;;;;;;;7.50;5.15;;;;;;;5.47;61.65;101722.91;4870240;28;20018;-89
2023/04/20 04:36:27;;;;;;;10.10;5.55;;;;;;;5.52;61.92;101713.19;4867119;28;20033;-89
2023/04/20 04:38:53;;;;;;;6.30;5.10;;;;;;;5.55;62.23;101714.88;4876329;28;20043;-88
2023/04/20 04:41:19;;;;;;;6.65;5.07;;;;;;;5.57;62.50;101710.47;4864761;28;20029;-89
2023/04/20 04:43:44;;;;;;;6.35;5.22;;;;;;;5.59;62.64;101706.88;4918976;28;20061;-90
2023/04/20 04:46:12;;;;;;;7.05;5.63;;;;;;;5.62;63.18;101714.75;4916710;28;20252;-89
2023/04/20 04:48:39;;;;;;;9.57;5.63;;;;;;;5.70;63.36;101715.50;4881483;28;20039;-89
2023/04/20 04:51:05;;;;;;;7.85;5.80;;;;;;;5.74;63.64;101711.06;4858486;28;20235;-89
2023/04/20 04:53:31;;;;;;;9.60;5.70;;;;;;;5.76;63.96;101709.25;4863553;29;20025;-89
2023/04/20 04:55:56;;;;;;;6.57;5.70;;;;;;;5.82;65.31;101716.22;4856735;28;20042;-88
2023/04/20 04:58:21;;;;;;;6.18;5.47;;;;;;;5.80;66.33;101712.69;4865611;28;20148;-89
2023/04/20 05:00:47;;;;;;;6.90;5.80;;;;;;;5.73;68.73;101707.53;4875612;28;20029;-89
2023/04/20 05:03:12;;;;;;;6.72;5.85;;;;;;;5.60;70.39;101708.66;4887274;28;20034;-89
2023/04/20 05:05:38;;;;;;;7.85;6.45;;;;;;;5.44;72.94;101708.03;4881987;28;21095;-90
2023/04/20 05:08:04;;;;;;;8.82;6.93;;;;;;;5.28;74.43;101703.88;4887126;28;20013;-90
2023/04/20 05:10:29;;;;;;;8.48;6.43;;;;;;;5.23;75.49;101701.31;4932119;28;20120;-90
2023/04/20 05:12:57;;;;;;;9.00;7.00;;;;;;;5.18;75.91;101708.41;4877545;28;20040;-87
2023/04/20 05:15:23;;;;;;;8.02;7.18;;;;;;;5.18;75.73;101715.44;4919129;28;20029;-90
2023/04/20 05:17:48;;;;;;;7.18;6.45;;;;;;;5.22;76.78;101710.13;4874411;29;20078;-89
2023/04/20 05:20:14;;;;;;;7.63;6.38;;;;;;;5.24;77.42;101703.03;4864499;29;20379;-89
2023/04/20 05:22:39;;;;;;;11.45;6.68;;;;;;;5.34;75.58;101705.53;4867973;29;20501;-88
2023/04/20 05:25:05;;;;;;;7.60;6.70;;;;;;;5.38;75.85;101705.47;4909634;28;20488;-91
2023/04/20 05:27:32;;;;;;;6.78;6.07;;;;;;;5.43;76.40;101716.84;4897919;28;20787;-90
2023/04/20 05:29:58;;;;;;;7.47;6.50;;;;;;;5.44;77.18;101712.44;4902637;28;20124;-88
2023/04/20 05:32:23;;;;;;;7.85;6.53;;;;;;;5.51;77.35;101711.41;4971322;28;20130;-91
2023/04/20 05:34:48;;;;;;;8.88;6.50;;;;;;;5.57;74.96;101710.47;4903865;28;20488;-90
2023/04/20 05:37:15;;;;;;;7.25;6.28;;;;;;;5.60;75.52;101705.09;4938677;28;20183;-90
2023/04/20 05:39:40;;;;;;;8.77;6.30;;;;;;;5.66;75.35;101705.88;4886774;28;20668;-89
2023/04/20 05:42:05;;;;;;;7.78;6.45;;;;;;;5.73;75.51;101701.38;4861911;28;20120;-88
2023/04/20 05:44:32;;;;;;;8.05;6.88;;;;;;;5.79;74.47;101701.28;4941519;28;20037;-87
2023/04/20 05:46:58;;;;;;;7.00;6.30;;;;;;;5.85;73.96;101701.19;4926690;28;20040;-89
2023/04/20 05:49:23;;;;;;;7.15;6.07;;;;;;;5.85;73.58;101679.13;4867026;29;20025;-89
2023/04/20 05:51:49;;;;;;;7.75;6.47;;;;;;;5.92;73.23;101686.97;4868571;28;20041;-89
2023/04/20 05:54:15;;;;;;;6.80;6.20;;;;;;;5.98;73.57;101689.53;4855984;29;20041;-88
2023/04/20 05:56:40;;;;;;;8.30;6.05;;;;;;;6.04;71.54;101692.94;4860450;28;20533;-88
2023/04/20 05:59:06;;;;;;;8.10;6.20;;;;;;;6.10;71.62;101684.88;4866778;29;20651;-87
2023/04/20 06:01:31;;;;;;;9.63;6.50;;;;;;;6.23;71.43;101692.56;4861064;28;20044;-90
2023/04/20 06:03:57;;;;;;;7.90;6.25;;;;;;;6.38;71.68;101691.38;4892774;28;20035;-88
2023/04/20 06:06:22;;;;;;;9.20;6.13;;;;;;;6.47;70.50;101691.19;4869422;28;20043;-89
2023/04/20 06:08:47;;;;;;;8.70;5.78;;;;;;;6.51;68.96;101692.00;4871274;29;20556;-88
2023/04/20 06:11:13;;;;;;;7.07;5.65;;;;;;;6.48;69.07;101692.97;4903892;28;20123;-88
2023/04/20 06:13:38;;;;;;;6.57;5.78;;;;;;;6.51;69.66;101685.84;4869621;29;20136;-89
2023/04/20 06:16:08;;;;;;;7.35;5.75;;;;;;;6.52;68.44;101685.84;4867507;28;20083;-88
2023/04/20 06:18:33;;;;;;;6.80;6.07;;;;;;;6.58;69.02;101682.19;4910610;28;20041;-89
2023/04/20 06:21:00;;;;;;;7.65;6.28;;;;;;;6.60;68.53;101686.50;4861498;28;20099;-88
2023/04/20 06:23:26;;;;;;;7.57;5.82;;;;;;;6.61;68.48;101682.13;4875120;28;20032;-88
2023/04/20 06:25:51;;;;;;;8.15;6.50;;;;;;;6.57;69.09;101683.09;4880753;28;20026;-89
2023/04/20 06:28:16;;;;;;;8.98;6.40;;;;;;;6.55;67.93;101688.41;4920335;28;20102;-88
2023/04/20 06:30:42;;;;;;;6.80;6.00;;;;;;;6.53;68.77;101686.72;4879410;28;20030;-87
2023/04/20 06:33:07;;;;;;;7.38;6.13;;;;;;;6.51;68.37;101681.44;4872315;28;20045;-89
2023/04/20 06:35:33;;;;;;;7.03;5.80;;;;;;;6.49;68.95;101681.47;4885961;28;20025;-90
2023/04/20 06:37:58;;;;;;;9.30;6.55;;;;;;;6.51;68.78;101681.44;4875466;28;20037;-92
2023/04/20 06:40:27;;;;;;;7.93;6.45;;;;;;;6.50;68.70;101671.75;4919831;28;20028;-91
2023/04/20 06:42:53;;;;;;;7.60;6.32;;;;;;;6.53;68.98;101666.41;4865252;28;20033;-89
2023/04/20 06:45:18;;;;;;;8.77;6.25;;;;;;;6.61;69.06;101663.59;4874977;28;20102;-92
2023/04/20 06:47:44;;;;;;;9.68;6.50;;;;;;;6.67;69.03;101660.81;4870354;28;20085;-87
2023/04/20 06:50:10;;;;;;;7.28;6.35;;;;;;;6.75;68.61;101656.22;4880828;28;20278;-85
2023/04/20 06:52:36;;;;;;;6.35;5.75;;;;;;;6.74;68.47;101665.09;4930661;28;20032;-87
2023/04/20 06:55:02;;;;;;;6.70;6.10;;;;;;;6.65;68.41;101665.28;4900834;28;20033;-85
2023/04/20 06:57:27;;;;;;;6.78;6.05;;;;;;;6.62;68.41;101665.34;4861339;29;20041;-85
2023/04/20 06:59:53;;;;;;;7.78;5.80;;;;;;;6.65;68.88;101673.22;4858286;29;20117;-84
2023/04/20 07:02:18;;;;;;;7.35;6.25;;;;;;;6.67;69.22;101669.63;4870579;28;20035;-85
2023/04/20 07:04:43;;;;;;;7.95;6.20;;;;;;;6.69;69.16;101666.97;4862307;28;20590;-86
2023/04/20 07:07:09;;;;;;;7.80;6.20;;;;;;;6.72;68.72;101666.88;4861745;28;20025;-85
2023/04/20 07:09:34;;;;;;;6.78;6.07;;;;;;;6.69;69.33;101659.03;4863994;28;20631;-84
2023/04/20 07:12:00;;;;;;;7.25;6.15;;;;;;;6.78;69.79;101663.25;4868466;28;20604;-85
2023/04/20 07:14:25;;;;;;;7.10;6.43;;;;;;;6.79;70.06;101663.19;4945367;28;20054;-86
2023/04/20 07:16:52;;;;;;;7.10;6.40;;;;;;;6.73;69.61;101658.06;4881402;28;20420;-84
2023/04/20 07:19:17;;;;;;;7.43;6.20;;;;;;;6.72;70.31;101658.94;4856562;28;20065;-86
2023/04/20 07:21:43;;;;;;;7.13;5.95;;;;;;;6.73;70.15;101656.28;4868846;28;20124;-86
2023/04/20 07:24:08;;;;;;;7.03;5.95;;;;;;;6.74;69.70;101668.59;4867076;28;20024;-86
2023/04/20 07:26:33;;;;;;;7.55;6.43;;;;;;;6.73;69.77;101658.06;4934145;28;21615;-86
2023/04/20 07:28:59;;;;;;;6.68;5.97;;;;;;;6.70;69.33;101660.75;4888715;28;20029;-87
2023/04/20 07:31:24;;;;;;;6.93;6.10;;;;;;;6.70;69.89;101660.75;4864385;28;20053;-86
2023/04/20 07:33:49;;;;;;;6.40;5.70;;;;;;;6.69;69.54;101661.66;4876540;28;20044;-85
2023/04/20 07:36:15;;;;;;;8.15;6.60;;;;;;;6.73;69.67;101664.22;4862718;28;20025;-87
2023/04/20 07:38:40;;;;;;;9.50;6.80;;;;;;;6.78;69.41;101666.75;4872604;29;20235;-86
2023/04/20 07:41:09;;;;;;;7.78;5.88;;;;;;;6.81;69.32;101664.03;4872693;28;20032;-84
2023/04/20 07:43:35;;;;;;;6.70;5.95;;;;;;;6.82;69.73;101663.13;4904604;28;20043;-84
2023/04/20 07:46:00;;;;;;;6.50;5.53;;;;;;;7.06;69.74;101668.75;4873258;28;20025;-86
2023/04/20 07:48:25;;;;;;;6.57;5.95;;;;;;;7.09;68.01;101664.28;4946312;28;20021;-86
2023/04/20 07:50:51;;;;;;;7.68;5.82;;;;;;;7.15;68.13;101660.63;4869552;28;20045;-85
2023/04/20 07:53:16;;;;;;;6.38;5.78;;;;;;;7.39;67.86;101661.78;4891262;28;20030;-86
2023/04/20 07:55:41;;;;;;;7.28;5.78;;;;;;;7.65;66.90;101664.69;4880491;28;20573;-86
2023/04/20 07:58:07;;;;;;;6.55;5.63;;;;;;;7.65;66.40;101667.31;4876755;28;20096;-85
2023/04/20 08:00:32;;;;;;;7.18;5.95;;;;;;;7.71;66.26;101669.81;4868415;28;20029;-86
2023/04/20 08:02:58;;;;;;;9.20;5.60;;;;;;;7.77;66.04;101663.47;4868928;28;20033;-84
2023/04/20 08:05:23;;;;;;;6.30;5.70;;;;;;;7.82;66.13;101658.06;4920300;28;20517;-85
2023/04/20 08:07:49;;;;;;;7.05;6.10;;;;;;;7.95;65.98;101649.75;4869306;28;20033;-86
2023/04/20 08:10:15;;;;;;;7.72;5.35;;;;;;;8.03;65.21;101648.69;4861396;28;20255;-86
2023/04/20 08:12:40;;;;;;;5.65;5.10;;;;;;;8.06;64.47;101649.44;4935573;28;20165;-86
2023/04/20 08:15:06;;;;;;;5.90;5.20;;;;;;;8.28;63.62;101643.53;4929559;28;20041;-87
2023/04/20 08:17:32;;;;;;;5.72;5.20;;;;;;;8.34;63.01;101649.53;4863351;28;20093;-86
2023/04/20 08:19:57;;;;;;;6.68;5.40;;;;;;;8.48;62.67;101639.44;4865838;28;20357;-86
2023/04/20 08:22:26;;;;;;;6.50;4.97;;;;;;;8.39;62.67;101645.00;4918913;28;20040;-85
2023/04/20 08:24:51;;;;;;;5.38;4.88;;;;;;;8.40;63.08;101640.56;4866364;28;20111;-84
2023/04/20 08:27:17;;;;;;;6.30;4.70;;;;;;;8.45;62.56;101639.53;4869231;28;20032;-86
2023/04/20 08:29:42;;;;;;;5.13;4.45;;;;;;;8.40;63.13;101636.16;4867454;28;20378;-86
2023/04/20 08:32:08;;;;;;;5.00;4.60;;;;;;;8.28;63.35;101633.81;4864583;28;20047;-85
2023/04/20 08:34:34;;;;;;;5.13;4.60;;;;;;;8.28;63.75;101643.53;4920699;28;20487;-85
2023/04/20 08:36:59;;;;;;;5.53;4.63;;;;;;;8.63;62.97;101616.88;4862061;28;20060;-84
2023/04/20 08:39:25;;;;;;;5.20;4.70;;;;;;;8.86;62.17;101632.09;4922750;28;20127;-85
2023/04/20 08:41:54;;;;;;;6.95;4.95;;;;;;;8.87;62.29;101628.53;4944022;28;20072;-86
2023/04/20 08:44:20;;;;;;;6.30;5.03;;;;;;;8.87;61.96;101617.91;4870795;28;20044;-83
2023/04/20 08:46:47;;;;;;;5.45;4.75;;;;;;;9.08;61.35;101620.81;4865424;28;20032;-84
2023/04/20 08:49:15;;;;;;;7.78;4.97;;;;;;;9.28;61.37;101613.06;4935885;28;20037;-85
2023/04/20 08:51:43;;;;;;;5.32;4.60;;;;;;;9.28;60.54;101615.72;4858889;28;20136;-84
2023/04/20 08:54:09;;;;;;;4.70;4.28;;;;;;;9.13;60.03;101614.41;4919541;28;20070;-83
2023/04/20 08:56:36;;;;;;;5.32;4.80;;;;;;;9.07;60.82;101621.69;4861466;28;20039;-85
2023/04/20 08:59:04;;;;;;;6.40;4.80;;;;;;;8.97;60.93;101608.72;4961963;28;20033;-85
2023/04/20 09:01:29;;;;;;;6.18;5.20;;;;;;;8.85;60.97;101614.41;4862197;28;20060;-83
2023/04/20 09:03:55;;;;;;;5.38;4.80;;;;;;;8.86;61.39;101609.97;4861171;28;20459;-84
2023/04/20 09:06:21;;;;;;;5.63;5.07;;;;;;;8.94;61.98;101611.47;4867129;29;20036;-83
2023/04/20 09:08:47;;;;;;;6.07;5.47;;;;;;;8.95;61.70;101602.59;4865149;28;20115;-85
2023/04/20 09:11:24;;;;;;;5.70;4.95;;;;;;;9.04;61.79;101606.75;4865820;29;20411;-84
2023/04/20 09:14:08;;;;;;;5.00;4.50;;;;;;;9.33;61.59;101611.09;4861731;28;20030;-85
2023/04/20 09:16:35;;;;;;;7.82;4.85;;;;;;;9.64;60.19;101602.06;4865294;28;20033;-85
2023/04/20 09:19:01;;;;;;;4.70;4.15;;;;;;;9.83;58.28;101613.81;4861285;28;20025;-84
2023/04/20 09:21:27;;;;;;;5.15;4.28;;;;;;;9.76;57.90;101609.63;4863245;28;20111;-85
2023/04/20 09:24:06;;;;;;;5.28;4.00;;;;;;;9.43;58.03;101606.34;4862203;29;20022;-86
2023/04/20 09:26:33;;;;;;;4.47;4.05;;;;;;;9.08;59.27;101602.22;4863117;28;20136;-84
2023/04/20 09:29:02;;;;;;;5.80;4.40;;;;;;;8.91;58.92;101600.97;4874918;28;20162;-84
2023/04/20 09:31:28;;;;;;;4.65;4.22;;;;;;;8.92;59.28;101605.34;4960937;28;20050;-84
2023/04/20 09:33:58;;;;;;;4.80;4.30;;;;;;;8.90;59.50;101599.25;4863300;29;20336;-84
2023/04/20 09:36:33;;;;;;;4.95;4.45;;;;;;;9.06;59.51;101602.25;4864473;28;20083;-85
2023/04/20 09:39:19;;;;;;;5.53;4.38;;;;;;;9.38;58.95;101587.91;4878950;28;20123;-83
2023/04/20 09:41:45;;;;;;;5.13;4.60;;;;;;;10.30;57.48;101595.28;4942176;28;20056;-84
2023/04/20 09:44:12;;;;;;;4.80;4.30;;;;;;;13.07;50.78;101569.84;4928054;28;20032;-84
2023/04/20 09:46:40;;;;;;;5.30;4.30;;;;;;;14.82;44.20;101574.84;4859034;28;20603;-85
2023/04/20 09:49:07;;;;;;;4.30;3.90;;;;;;;15.01;42.37;101573.78;4923589;28;20041;-84
2023/04/20 09:51:35;;;;;;;5.05;3.80;;;;;;;14.11;43.97;101567.13;4867116;28;20534;-83
2023/04/20 09:54:02;;;;;;;4.60;3.90;;;;;;;13.23;45.02;101577.13;4858703;28;20526;-84
2023/04/20 09:56:29;;;;;;;4.32;3.35;;;;;;;14.37;44.45;101565.69;4861394;28;20107;-84
2023/04/20 09:58:58;;;;;;;4.00;3.70;;;;;;;16.54;40.17;101557.22;4857734;28;20037;-84
2023/04/20 10:01:24;;;;;;;3.83;3.53;;;;;;;15.88;38.95;101566.78;4862739;28;20040;-85
2023/04/20 10:03:52;;;;;;;4.75;3.50;;;;;;;14.07;41.32;101551.31;4866110;28;20056;-84
2023/04/20 10:06:31;;;;;;;5.60;4.00;;;;;;;12.74;44.61;101563.47;4936456;28;21031;-85
2023/04/20 10:09:01;;;;;;;4.53;3.90;;;;;;;12.17;46.56;101552.81;4850335;28;20124;-82
2023/04/20 10:11:32;;;;;;;4.57;4.05;;;;;;;11.67;48.27;101555.94;4911272;28;20050;-85
2023/04/20 10:13:59;;;;;;;5.60;4.25;;;;;;;11.21;49.73;101566.78;4936869;28;20033;-85
2023/04/20 10:16:25;;;;;;;4.45;4.05;;;;;;;10.77;50.47;101549.94;4870680;28;20037;-83
2023/04/20 10:19:02;;;;;;;5.03;4.20;;;;;;;10.40;52.01;101556.72;4862676;28;20189;-83
2023/04/20 10:21:31;;;;;;;4.60;4.20;;;;;;;10.28;52.89;101559.84;4916209;28;22395;-83
2023/04/20 10:23:59;;;;;;;5.85;4.18;;;;;;;10.08;53.55;101562.41;4860183;28;20052;-85
2023/04/20 10:26:46;;;;;;;4.82;4.35;;;;;;;9.95;53.98;101560.19;4922837;28;20025;-82
2023/04/20 10:29:24;;;;;;;6.22;4.40;;;;;;;9.96;54.99;101553.94;4901631;28;20049;-82
2023/04/20 10:31:50;;;;;;;5.32;4.78;;;;;;;10.32;54.27;101548.16;4918013;28;20098;-83
2023/04/20 10:34:16;;;;;;;4.53;4.13;;;;;;;11.22;51.70;101549.00;4869593;28;20041;-83
2023/04/20 10:36:41;;;;;;;8.90;4.22;;;;;;;13.20;47.72;101538.00;4947215;28;21849;-85
2023/04/20 10:39:15;;;;;;;6.30;4.18;;;;;;;13.65;45.39;101528.59;4913437;28;20037;-83
2023/04/20 10:42:00;;;;;;;5.47;4.20;;;;;;;12.95;46.75;101525.88;4869923;28;20040;-82
2023/04/20 10:44:26;;;;;;;5.22;4.38;;;;;;;12.35;47.54;101513.72;4917300;28;20116;-81
2023/04/20 10:46:52;;;;;;;5.47;4.72;;;;;;;12.01;48.90;101544.66;4863875;29;20113;-82
2023/04/20 10:49:17;;;;;;;4.40;4.10;;;;;;;11.44;50.02;101533.78;4862545;29;20119;-84
2023/04/20 10:51:50;;;;;;;6.40;5.00;;;;;;;10.97;51.83;101539.34;4870441;28;20037;-84
2023/04/20 10:54:16;;;;;;;5.03;4.53;;;;;;;10.34;52.97;101542.81;4859989;28;20041;-83
2023/04/20 10:56:46;;;;;;;7.00;5.60;;;;;;;9.70;54.97;101548.72;4863738;28;20079;-85
2023/04/20 10:59:14;;;;;;;6.18;5.55;;;;;;;9.53;56.17;101545.75;4943240;28;20033;-83
2023/04/20 11:01:40;;;;;;;6.53;5.38;;;;;;;9.37;56.60;101538.34;4865723;28;20037;-85
2023/04/20 11:04:10;;;;;;;6.82;5.22;;;;;;;9.20;57.64;101538.94;4876906;28;20079;-84
2023/04/20 11:06:38;;;;;;;5.60;5.10;;;;;;;9.10;58.51;101533.97;4864023;28;20033;-82
2023/04/20 11:09:14;;;;;;;6.35;5.70;;;;;;;9.23;59.00;101535.28;4868187;28;20097;-84
2023/04/20 11:11:40;;;;;;;6.22;5.60;;;;;;;9.88;57.94;101528.56;4923314;28;20091;-82
2023/04/20 11:14:09;;;;;;;7.13;5.65;;;;;;;10.06;57.19;101519.88;4860904;28;20029;-85
2023/04/20 11:16:36;;;;;;;7.35;6.65;;;;;;;10.28;56.80;101527.06;4939360;28;20068;-84
2023/04/20 11:19:05;;;;;;;6.80;5.97;;;;;;;10.36;56.23;101524.97;4863650;28;20040;-81
2023/04/20 11:21:39;;;;;;;6.00;5.50;;;;;;;10.16;56.35;101523.06;4938483;28;20037;-84
2023/04/20 11:24:18;;;;;;;;;;;;;;;10.16;55.39;101521.28;4861964;28;20033;-83
2023/04/20 11:26:43;;;;;;;6.03;5.43;;;;;;;9.56;57.61;101516.44;4858392;28;19920;-85
2023/04/20 11:29:09;;;;;;;7.47;5.43;;;;;;;9.44;57.65;101513.28;4857457;28;20352;-84